createdAt,value
2023-04-17T00:02:03.105Z,8.33
2023-04-17T00:04:26.756Z,8.34
2023-04-17T00:07:02.932Z,8.35
2023-04-17T00:09:34.194Z,8.37
2023-04-17T00:12:16.602Z,8.39
2023-04-17T00:14:48.015Z,8.40
2023-04-17T00:17:11.624Z,8.40
2023-04-17T00:19:47.062Z,8.43
2023-04-17T00:22:23.804Z,8.44
2023-04-17T00:24:47.524Z,8.45
2023-04-17T00:27:11.111Z,8.46
2023-04-17T00:29:44.995Z,8.48
2023-04-17T00:32:28.659Z,8.47
2023-04-17T00:35:02.372Z,8.46
2023-04-17T00:37:31.229Z,8.46
2023-04-17T00:39:59.435Z,8.47
2023-04-17T00:42:44.550Z,8.47
2023-04-17T00:45:17.129Z,8.48
2023-04-17T00:47:43.822Z,8.49
2023-04-17T00:50:11.053Z,8.50
2023-04-17T00:52:46.212Z,8.48
2023-04-17T00:55:32.120Z,8.47
2023-04-17T00:58:16.117Z,8.45
2023-04-17T01:00:42.075Z,8.44
2023-04-17T01:03:29.126Z,8.42
2023-04-17T01:06:13.088Z,8.41
2023-04-17T01:08:42.398Z,8.42
2023-04-17T01:11:06.328Z,8.41
2023-04-17T01:13:29.827Z,8.41
2023-04-17T01:16:14.838Z,8.41
2023-04-17T01:18:58.640Z,8.38
2023-04-17T01:21:25.224Z,8.38
2023-04-17T01:23:52.313Z,8.37
2023-04-17T01:26:30.838Z,8.37
2023-04-17T01:28:59.341Z,8.36
2023-04-17T01:31:37.222Z,8.36
2023-04-17T01:34:14.509Z,8.35
2023-04-17T01:36:58.559Z,8.35
2023-04-17T01:39:37.272Z,8.35
2023-04-17T01:42:05.698Z,8.33
2023-04-17T01:44:49.713Z,8.31
2023-04-17T01:47:13.891Z,8.32
2023-04-17T01:49:41.241Z,8.33
2023-04-17T01:52:08.117Z,8.32
2023-04-17T01:54:32.284Z,8.31
2023-04-17T01:56:56.423Z,8.32
2023-04-17T01:59:19.808Z,8.31
2023-04-17T02:01:43.320Z,8.32
2023-04-17T02:04:07.183Z,8.31
2023-04-17T02:06:51.329Z,8.31
2023-04-17T02:09:18.238Z,8.31
2023-04-17T02:11:48.966Z,8.31
2023-04-17T02:14:23.397Z,8.31
2023-04-17T02:16:49.547Z,8.31
2023-04-17T02:19:16.093Z,8.29
2023-04-17T02:21:59.836Z,8.27
2023-04-17T02:24:23.340Z,8.25
2023-04-17T02:26:49.565Z,8.24
2023-04-17T02:29:33.738Z,8.23
2023-04-17T02:32:05.235Z,8.22
2023-04-17T02:34:38.600Z,8.21
2023-04-17T02:37:07.525Z,8.20
2023-04-17T02:39:40.949Z,8.21
2023-04-17T02:42:07.206Z,8.22
2023-04-17T02:44:35.489Z,8.21
2023-04-17T02:47:02.087Z,8.22
2023-04-17T02:49:33.092Z,8.22
2023-04-17T02:52:04.956Z,8.22
2023-04-17T02:54:39.607Z,8.21
2023-04-17T02:57:03.725Z,8.20
2023-04-17T02:59:27.352Z,8.19
2023-04-17T03:01:51.035Z,8.18
2023-04-17T03:04:17.133Z,8.17
2023-04-17T03:06:41.417Z,8.16
2023-04-17T03:09:06.384Z,8.16
2023-04-17T03:11:37.232Z,8.15
2023-04-17T03:14:01.024Z,8.12
2023-04-17T03:16:44.837Z,8.11
2023-04-17T03:19:28.660Z,8.09
2023-04-17T03:21:54.584Z,8.07
2023-04-17T03:24:33.275Z,8.07
2023-04-17T03:27:09.321Z,8.09
2023-04-17T03:29:37.688Z,8.11
2023-04-17T03:32:21.340Z,8.11
2023-04-17T03:35:06.689Z,8.14
2023-04-17T03:37:31.403Z,8.15
2023-04-17T03:39:58.797Z,8.16
2023-04-17T03:42:28.189Z,8.15
2023-04-17T03:44:54.789Z,8.15
2023-04-17T03:47:25.827Z,8.15
2023-04-17T03:49:52.938Z,8.16
2023-04-17T03:52:19.687Z,8.17
2023-04-17T03:54:59.255Z,8.19
2023-04-17T03:57:43.267Z,8.18
2023-04-17T04:00:18.530Z,8.21
2023-04-17T04:02:42.007Z,8.23
2023-04-17T04:05:09.663Z,8.23
2023-04-17T04:07:41.080Z,8.24
2023-04-17T04:10:10.894Z,8.23
2023-04-17T04:12:55.392Z,8.24
2023-04-17T04:15:21.904Z,8.25
2023-04-17T04:17:49.377Z,8.25
2023-04-17T04:20:16.448Z,8.25
2023-04-17T04:22:44.253Z,8.26
2023-04-17T04:25:28.459Z,8.28
2023-04-17T04:28:06.114Z,8.30
2023-04-17T04:30:50.653Z,8.34
2023-04-17T04:33:31.116Z,8.35
2023-04-17T04:35:56.316Z,8.36
2023-04-17T04:38:30.381Z,8.38
2023-04-17T04:41:05.635Z,8.39
2023-04-17T04:43:33.457Z,8.41
2023-04-17T04:46:00.417Z,8.43
2023-04-17T04:48:28.561Z,8.43
2023-04-17T04:50:52.087Z,8.44
2023-04-17T04:53:18.605Z,8.45
2023-04-17T04:55:48.407Z,8.47
2023-04-17T04:58:25.363Z,8.48
2023-04-17T05:00:49.573Z,8.50
2023-04-17T05:03:40.072Z,8.50
2023-04-17T05:06:10.614Z,8.51
2023-04-17T05:08:37.325Z,8.51
2023-04-17T05:11:07.313Z,8.51
2023-04-17T05:13:33.900Z,8.53
2023-04-17T05:16:01.649Z,8.55
2023-04-17T05:18:25.877Z,8.56
2023-04-17T05:20:49.355Z,8.56
2023-04-17T05:23:13.291Z,8.59
2023-04-17T05:25:37.735Z,8.62
2023-04-17T05:28:04.879Z,8.65
2023-04-17T05:30:28.861Z,8.69
2023-04-17T05:33:04.619Z,8.72
2023-04-17T05:35:39.089Z,8.73
2023-04-17T05:38:10.279Z,8.76
2023-04-17T05:40:36.821Z,8.79
2023-04-17T05:43:07.854Z,8.83
2023-04-17T05:45:41.358Z,8.87
2023-04-17T05:48:06.399Z,8.91
2023-04-17T05:50:30.349Z,8.96
2023-04-17T05:52:54.447Z,9.03
2023-04-17T05:55:19.739Z,9.13
2023-04-17T05:57:50.153Z,9.30
2023-04-17T06:00:24.162Z,9.61
2023-04-17T06:02:50.513Z,9.87
2023-04-17T06:05:21.347Z,10.07
2023-04-17T06:07:45.638Z,10.22
2023-04-17T06:10:11.629Z,10.30
2023-04-17T06:12:55.576Z,10.36
2023-04-17T06:15:23.346Z,10.43
2023-04-17T06:18:01.296Z,10.55
2023-04-17T06:20:28.417Z,10.73
2023-04-17T06:23:12.679Z,11.00
2023-04-17T06:25:39.288Z,11.45
2023-04-17T06:28:23.634Z,11.79
2023-04-17T06:30:49.065Z,11.98
2023-04-17T06:33:12.605Z,12.17
2023-04-17T06:35:37.180Z,12.40
2023-04-17T06:38:09.488Z,12.64
2023-04-17T06:40:33.756Z,12.75
2023-04-17T06:43:02.621Z,12.85
2023-04-17T06:45:26.208Z,12.88
2023-04-17T06:47:49.912Z,12.85
2023-04-17T06:50:14.080Z,13.03
2023-04-17T06:52:37.632Z,13.36
2023-04-17T06:55:01.740Z,13.90
2023-04-17T06:57:26.959Z,14.56
2023-04-17T06:59:53.752Z,15.17
2023-04-17T07:02:17.461Z,15.88
2023-04-17T07:04:44.254Z,16.52
2023-04-17T07:07:07.928Z,16.75
2023-04-17T07:09:31.292Z,17.04
2023-04-17T07:11:55.292Z,17.36
2023-04-17T07:14:18.786Z,17.37
2023-04-17T07:16:42.515Z,17.15
2023-04-17T07:19:06.224Z,16.98
2023-04-17T07:21:29.988Z,16.84
2023-04-17T07:23:53.446Z,16.69
2023-04-17T07:26:17.184Z,16.54
2023-04-17T07:28:40.842Z,16.37
2023-04-17T07:31:11.835Z,16.23
2023-04-17T07:33:37.418Z,16.15
2023-04-17T07:36:03.242Z,15.90
2023-04-17T07:38:26.659Z,15.74
2023-04-17T07:40:50.670Z,15.64
2023-04-17T07:43:14.710Z,15.59
2023-04-17T07:45:40.476Z,15.65
2023-04-17T07:48:05.785Z,15.69
2023-04-17T07:50:29.731Z,15.63
2023-04-17T07:52:53.258Z,15.49
2023-04-17T07:55:17.075Z,15.35
2023-04-17T07:57:42.093Z,15.21
2023-04-17T08:00:09.871Z,15.13
2023-04-17T08:02:43.082Z,15.06
2023-04-17T08:05:10.593Z,15.03
2023-04-17T08:07:34.130Z,15.05
2023-04-17T08:09:58.126Z,15.12
2023-04-17T08:12:21.468Z,15.19
2023-04-17T08:14:44.957Z,15.28
2023-04-17T08:17:08.411Z,15.32
2023-04-17T08:19:31.893Z,15.26
2023-04-17T08:22:03.292Z,15.20
2023-04-17T08:24:26.872Z,15.20
2023-04-17T08:26:50.811Z,15.22
2023-04-17T08:29:14.633Z,15.29
2023-04-17T08:31:39.727Z,15.49
2023-04-17T08:34:13.735Z,16.08
2023-04-17T08:36:39.436Z,16.57
2023-04-17T08:39:04.165Z,16.99
2023-04-17T08:41:36.756Z,17.88
2023-04-17T08:44:03.105Z,18.55
2023-04-17T08:46:27.127Z,18.63
2023-04-17T08:48:52.223Z,18.54
2023-04-17T08:51:16.845Z,18.29
2023-04-17T08:53:40.524Z,18.00
2023-04-17T08:56:08.918Z,17.71
2023-04-17T08:58:34.204Z,17.36
2023-04-17T09:01:09.126Z,16.99
2023-04-17T09:03:41.082Z,16.70
2023-04-17T09:06:05.091Z,16.52
2023-04-17T09:08:28.934Z,16.44
2023-04-17T09:10:59.790Z,16.60
2023-04-17T09:13:24.796Z,16.82
2023-04-17T09:16:07.416Z,17.28
2023-04-17T09:18:32.318Z,18.01
2023-04-17T09:20:56.926Z,18.33
2023-04-17T09:23:22.186Z,18.39
2023-04-17T09:25:46.089Z,18.36
2023-04-17T09:28:15.575Z,18.26
2023-04-17T09:30:40.420Z,18.17
2023-04-17T09:33:05.065Z,18.02
2023-04-17T09:35:28.842Z,17.84
2023-04-17T09:37:53.601Z,17.58
2023-04-17T09:40:18.500Z,17.27
2023-04-17T09:42:56.453Z,17.00
2023-04-17T09:45:21.774Z,16.76
2023-04-17T09:47:47.892Z,16.56
2023-04-17T09:50:11.126Z,16.36
2023-04-17T09:52:36.259Z,16.16
2023-04-17T09:55:06.239Z,16.07
2023-04-17T09:57:29.786Z,16.12
2023-04-17T09:59:58.995Z,16.27
2023-04-17T10:02:26.121Z,16.59
2023-04-17T10:04:49.843Z,17.29
2023-04-17T10:07:15.627Z,18.09
2023-04-17T10:09:41.207Z,18.93
2023-04-17T10:12:06.049Z,19.57
2023-04-17T10:14:32.880Z,19.93
2023-04-17T10:16:56.819Z,19.80
2023-04-17T10:19:31.167Z,19.38
2023-04-17T10:22:32.357Z,19.05
2023-04-17T10:25:17.907Z,18.52
2023-04-17T10:27:47.010Z,18.23
2023-04-17T10:30:12.547Z,17.98
2023-04-17T10:32:36.536Z,17.79
2023-04-17T10:35:02.944Z,17.70
2023-04-17T10:37:58.675Z,17.67
2023-04-17T10:40:23.989Z,17.62
2023-04-17T10:43:03.195Z,17.58
2023-04-17T10:45:46.784Z,17.69
2023-04-17T10:48:20.942Z,17.83
2023-04-17T10:50:44.732Z,17.93
2023-04-17T10:53:28.348Z,17.99
2023-04-17T10:55:51.785Z,18.00
2023-04-17T10:58:15.386Z,17.97
2023-04-17T11:00:49.901Z,17.98
2023-04-17T11:03:16.456Z,17.99
2023-04-17T11:05:45.223Z,18.01
2023-04-17T11:08:11.043Z,17.99
2023-04-17T11:10:36.884Z,18.05
2023-04-17T11:13:01.594Z,18.11
2023-04-17T11:15:29.768Z,18.14
2023-04-17T11:17:54.573Z,18.19
2023-04-17T11:20:21.858Z,18.17
2023-04-17T11:22:45.752Z,18.09
2023-04-17T11:25:20.783Z,18.28
2023-04-17T11:27:44.442Z,18.56
2023-04-17T11:30:10.213Z,18.89
2023-04-17T11:32:37.022Z,19.21
2023-04-17T11:35:01.028Z,19.41
2023-04-17T11:37:25.590Z,19.38
2023-04-17T11:39:49.257Z,19.38
2023-04-17T11:42:12.630Z,19.44
2023-04-17T11:44:36.536Z,19.51
2023-04-17T11:47:01.537Z,19.55
2023-04-17T11:49:25.871Z,19.50
2023-04-17T11:51:49.708Z,19.41
2023-04-17T11:54:24.522Z,19.21
2023-04-17T11:57:00.761Z,19.10
2023-04-17T11:59:31.514Z,18.87
2023-04-17T12:01:54.894Z,18.55
2023-04-17T12:04:21.118Z,18.36
2023-04-17T12:06:45.346Z,18.14
2023-04-17T12:09:20.176Z,17.91
2023-04-17T12:11:43.684Z,17.70
2023-04-17T12:14:11.681Z,17.46
2023-04-17T12:16:35.551Z,17.25
2023-04-17T12:19:01.557Z,17.07
2023-04-17T12:21:27.636Z,16.90
2023-04-17T12:23:51.237Z,16.75
2023-04-17T12:26:15.211Z,16.60
2023-04-17T12:28:58.920Z,16.40
2023-04-17T12:31:22.589Z,16.23
2023-04-17T12:33:46.759Z,16.09
2023-04-17T12:36:10.581Z,15.93
2023-04-17T12:38:34.392Z,15.75
2023-04-17T12:40:57.829Z,15.55
2023-04-17T12:43:21.748Z,15.42
2023-04-17T12:45:45.793Z,15.33
2023-04-17T12:48:09.492Z,15.21
2023-04-17T12:50:33.132Z,15.11
2023-04-17T12:52:56.597Z,15.04
2023-04-17T12:55:20.830Z,14.94
2023-04-17T12:57:47.534Z,14.78
2023-04-17T13:00:12.775Z,14.72
2023-04-17T13:02:36.703Z,14.67
2023-04-17T13:05:00.860Z,14.61
2023-04-17T13:07:24.671Z,14.58
2023-04-17T13:09:48.410Z,14.56
2023-04-17T13:12:12.537Z,14.54
2023-04-17T13:14:43.457Z,14.52
2023-04-17T13:17:07.215Z,14.57
2023-04-17T13:19:32.416Z,14.65
2023-04-17T13:21:56.136Z,14.72
2023-04-17T13:24:19.872Z,14.80
2023-04-17T13:27:04.622Z,14.90
2023-04-17T13:29:31.324Z,14.99
2023-04-17T13:31:54.845Z,15.10
2023-04-17T13:34:19.622Z,15.16
2023-04-17T13:36:44.296Z,15.23
2023-04-17T13:39:08.877Z,15.30
2023-04-17T13:41:32.758Z,15.36
2023-04-17T13:43:56.665Z,15.37
2023-04-17T13:46:20.557Z,15.40
2023-04-17T13:48:46.207Z,15.38
2023-04-17T13:51:09.827Z,15.38
2023-04-17T13:53:33.596Z,15.35
2023-04-17T13:55:57.506Z,15.29
2023-04-17T13:58:20.948Z,15.17
2023-04-17T14:00:44.637Z,15.05
2023-04-17T14:03:08.193Z,14.92
2023-04-17T14:05:32.303Z,14.83
2023-04-17T14:08:03.936Z,14.82
2023-04-17T14:10:27.607Z,14.82
2023-04-17T14:12:54.434Z,14.81
2023-04-17T14:15:18.151Z,14.78
2023-04-17T14:17:42.540Z,14.76
2023-04-17T14:20:11.472Z,14.78
2023-04-17T14:22:44.343Z,14.85
2023-04-17T14:25:09.207Z,14.88
2023-04-17T14:27:35.073Z,14.90
2023-04-17T14:30:05.689Z,14.89
2023-04-17T14:32:31.904Z,14.87
2023-04-17T14:34:55.623Z,14.91
2023-04-17T14:37:19.571Z,14.95
2023-04-17T14:39:46.313Z,14.97
2023-04-17T14:42:10.195Z,14.99
2023-04-17T14:44:33.658Z,14.95
2023-04-17T14:46:57.333Z,14.90
2023-04-17T14:49:20.914Z,14.78
2023-04-17T14:51:44.423Z,14.66
2023-04-17T14:54:08.623Z,14.57
2023-04-17T14:56:32.249Z,14.48
2023-04-17T14:58:55.741Z,14.44
2023-04-17T15:01:19.200Z,14.41
2023-04-17T15:03:45.522Z,14.37
2023-04-17T15:06:11.743Z,14.33
2023-04-17T15:08:35.160Z,14.31
2023-04-17T15:10:58.842Z,14.25
2023-04-17T15:13:22.379Z,14.19
2023-04-17T15:15:45.809Z,14.18
2023-04-17T15:18:09.687Z,14.18
2023-04-17T15:20:35.170Z,14.17
2023-04-17T15:22:59.751Z,14.15
2023-04-17T15:25:24.204Z,14.12
2023-04-17T15:27:49.948Z,14.03
2023-04-17T15:30:15.261Z,13.96
2023-04-17T15:32:38.693Z,13.89
2023-04-17T15:35:02.296Z,13.81
2023-04-17T15:37:25.643Z,13.76
2023-04-17T15:39:49.046Z,13.74
2023-04-17T15:42:12.455Z,13.72
2023-04-17T15:44:36.918Z,13.73
2023-04-17T15:47:00.470Z,13.72
2023-04-17T15:49:24.600Z,13.71
2023-04-17T15:51:48.125Z,13.71
2023-04-17T15:54:11.555Z,13.69
2023-04-17T15:56:35.156Z,13.67
2023-04-17T15:58:58.482Z,13.64
2023-04-17T16:01:21.904Z,13.64
2023-04-17T16:03:45.700Z,13.62
2023-04-17T16:06:10.540Z,13.59
2023-04-17T16:08:34.170Z,13.57
2023-04-17T16:10:59.133Z,13.58
2023-04-17T16:13:22.537Z,13.57
2023-04-17T16:15:46.053Z,13.57
2023-04-17T16:18:11.162Z,13.55
2023-04-17T16:20:35.318Z,13.53
2023-04-17T16:22:58.816Z,13.51
2023-04-17T16:25:22.359Z,13.49
2023-04-17T16:27:45.871Z,13.44
2023-04-17T16:30:10.761Z,13.42
2023-04-17T16:32:34.193Z,13.55
2023-04-17T16:34:57.683Z,13.54
2023-04-17T16:37:21.039Z,13.47
2023-04-17T16:39:44.558Z,13.38
2023-04-17T16:42:08.375Z,13.24
2023-04-17T16:44:31.786Z,13.12
2023-04-17T16:49:22.460Z,12.95
2023-04-17T16:51:45.893Z,12.89
2023-04-17T16:54:09.352Z,12.80
2023-04-17T16:56:35.899Z,12.74
2023-04-17T16:58:59.409Z,12.66
2023-04-17T17:01:23.180Z,12.60
2023-04-17T17:03:46.692Z,12.53
2023-04-17T17:06:10.150Z,12.46
2023-04-17T17:08:33.744Z,12.42
2023-04-17T17:10:59.661Z,12.39
2023-04-17T17:13:23.050Z,12.35
2023-04-17T17:15:47.080Z,12.31
2023-04-17T17:18:10.548Z,12.29
2023-04-17T17:20:34.022Z,12.26
2023-04-17T17:22:57.432Z,12.22
2023-04-17T17:25:20.829Z,12.18
2023-04-17T17:27:44.259Z,12.09
2023-04-17T17:30:09.836Z,11.97
2023-04-17T17:32:33.407Z,11.87
2023-04-17T17:34:57.634Z,11.77
2023-04-17T17:37:21.337Z,11.69
2023-04-17T17:39:44.860Z,11.63
2023-04-17T17:42:08.951Z,11.57
2023-04-17T17:44:32.437Z,11.51
2023-04-17T17:46:55.827Z,11.48
2023-04-17T17:49:19.165Z,11.43
2023-04-17T17:51:43.769Z,11.41
2023-04-17T17:54:07.621Z,11.38
2023-04-17T17:56:31.128Z,11.34
2023-04-17T17:58:54.769Z,11.30
2023-04-17T18:01:18.193Z,11.27
2023-04-17T18:03:41.756Z,11.25
2023-04-17T18:06:05.567Z,11.24
2023-04-17T18:08:29.493Z,11.24
2023-04-17T18:10:53.007Z,11.24
2023-04-17T18:13:16.700Z,11.22
2023-04-17T18:15:40.122Z,11.18
2023-04-17T18:18:03.776Z,11.15
2023-04-17T18:20:27.221Z,11.13
2023-04-17T18:22:51.349Z,11.12
2023-04-17T18:25:14.751Z,11.10
2023-04-17T18:27:38.184Z,11.09
2023-04-17T18:30:01.832Z,11.06
2023-04-17T18:32:25.566Z,11.04
2023-04-17T18:34:50.217Z,11.04
2023-04-17T18:37:14.664Z,11.01
2023-04-17T18:39:59.340Z,11.00
2023-04-17T18:42:22.726Z,10.99
2023-04-17T18:44:46.281Z,10.98
2023-04-17T18:47:09.700Z,10.96
2023-04-17T18:49:35.498Z,10.95
2023-04-17T18:51:59.069Z,10.95
2023-04-17T18:54:23.613Z,10.93
2023-04-17T18:56:47.047Z,10.92
2023-04-17T18:59:11.218Z,10.91
2023-04-17T19:01:37.423Z,10.87
2023-04-17T19:04:01.988Z,10.86
2023-04-17T19:06:26.166Z,10.84
2023-04-17T19:08:49.702Z,10.83
2023-04-17T19:11:13.107Z,10.82
2023-04-17T19:13:44.386Z,10.81
2023-04-17T19:16:07.806Z,10.78
2023-04-17T19:18:31.270Z,10.75
2023-04-17T19:20:54.986Z,10.73
2023-04-17T19:23:21.050Z,10.73
2023-04-17T19:25:44.449Z,10.73
2023-04-17T19:28:07.886Z,10.72
2023-04-17T19:30:31.479Z,10.71
2023-04-17T19:32:55.052Z,10.69
2023-04-17T19:35:19.003Z,10.68
2023-04-17T19:37:45.824Z,10.67
2023-04-17T19:40:21.231Z,10.66
2023-04-17T19:42:47.499Z,10.64
2023-04-17T19:45:12.324Z,10.61
2023-04-17T19:47:36.533Z,10.59
2023-04-17T19:50:00.019Z,10.57
2023-04-17T19:52:24.022Z,10.55
2023-04-17T19:54:50.333Z,10.54
2023-04-17T19:57:22.976Z,10.54
2023-04-17T19:59:46.374Z,10.53
2023-04-17T20:02:11.273Z,10.53
2023-04-17T20:04:34.884Z,10.52
2023-04-17T20:06:58.278Z,10.52
2023-04-17T20:09:21.857Z,10.50
2023-04-17T20:11:45.649Z,10.50
2023-04-17T20:14:09.116Z,10.48
2023-04-17T20:16:32.533Z,10.48
2023-04-17T20:18:56.365Z,10.46
2023-04-17T20:21:20.011Z,10.43
2023-04-17T20:23:43.574Z,10.39
2023-04-17T20:26:10.562Z,10.34
2023-04-17T20:28:33.933Z,10.31
2023-04-17T20:30:57.647Z,10.26
2023-04-17T20:33:21.244Z,10.24
2023-04-17T20:35:45.015Z,10.20
2023-04-17T20:38:08.666Z,10.17
2023-04-17T20:40:35.433Z,10.15
2023-04-17T20:42:58.877Z,10.13
2023-04-17T20:45:22.676Z,10.09
2023-04-17T20:47:56.581Z,10.06
2023-04-17T20:50:21.041Z,10.02
2023-04-17T20:52:44.448Z,10.00
2023-04-17T20:55:09.022Z,9.97
2023-04-17T20:57:32.533Z,9.95
2023-04-17T20:59:56.154Z,9.93
2023-04-17T21:02:21.115Z,9.91
2023-04-17T21:04:44.922Z,9.90
2023-04-17T21:07:11.266Z,9.87
2023-04-17T21:09:35.296Z,9.87
2023-04-17T21:12:19.190Z,9.89
2023-04-17T21:14:51.399Z,9.89
2023-04-17T21:17:14.883Z,9.89
2023-04-17T21:19:41.701Z,9.89
2023-04-17T21:22:05.154Z,9.87
2023-04-17T21:24:31.093Z,9.86
2023-04-17T21:27:04.502Z,9.85
2023-04-17T21:29:29.203Z,9.84
2023-04-17T21:31:52.604Z,9.85
2023-04-17T21:34:16.208Z,9.86
2023-04-17T21:36:39.861Z,9.86
2023-04-17T21:39:06.694Z,9.85
2023-04-17T21:41:31.193Z,9.84
2023-04-17T21:43:54.608Z,9.83
2023-04-17T21:46:25.692Z,9.82
2023-04-17T21:48:49.267Z,9.82
2023-04-17T21:51:13.475Z,9.83
2023-04-17T21:53:49.762Z,9.83
2023-04-17T21:56:13.338Z,9.81
2023-04-17T21:58:37.085Z,9.77
2023-04-17T22:01:00.691Z,9.73
2023-04-17T22:03:24.327Z,9.72
2023-04-17T22:05:49.774Z,9.71
2023-04-17T22:08:16.890Z,9.69
2023-04-17T22:10:43.858Z,9.69
2023-04-17T22:13:07.465Z,9.66
2023-04-17T22:15:38.615Z,9.62
2023-04-17T22:18:02.341Z,9.59
2023-04-17T22:21:20.188Z,9.56
2023-04-17T22:24:56.520Z,9.48
2023-04-17T22:28:32.722Z,9.41
2023-04-17T22:32:09.530Z,9.34
2023-04-17T22:35:46.433Z,9.27
2023-04-17T22:39:23.090Z,9.20
2023-04-17T22:42:59.154Z,9.14
2023-04-17T22:46:35.527Z,9.12
2023-04-17T22:50:12.178Z,9.08
2023-04-17T22:53:48.618Z,9.08
2023-04-17T22:57:24.953Z,9.08
2023-04-17T23:01:01.360Z,9.09
2023-04-17T23:04:37.858Z,9.06
2023-04-17T23:08:14.438Z,9.03
2023-04-17T23:11:00.568Z,9.00
2023-04-17T23:13:25.025Z,9.01
2023-04-17T23:15:48.458Z,9.02
2023-04-17T23:18:11.903Z,9.02
2023-04-17T23:20:35.496Z,9.02
2023-04-17T23:22:58.912Z,9.01
2023-04-17T23:25:22.582Z,9.01
2023-04-17T23:27:46.100Z,9.01
2023-04-17T23:30:11.111Z,9.01
2023-04-17T23:32:34.714Z,9.01
2023-04-17T23:35:00.562Z,9.01
2023-04-17T23:37:24.228Z,9.01
2023-04-17T23:39:48.141Z,9.00
2023-04-17T23:42:11.561Z,8.98
2023-04-17T23:44:35.155Z,8.94
2023-04-17T23:46:59.294Z,8.93
2023-04-17T23:49:22.720Z,8.94
2023-04-17T23:51:46.173Z,8.92
2023-04-17T23:54:09.835Z,8.91
2023-04-17T23:56:33.240Z,8.91
2023-04-17T23:58:56.739Z,8.90
